Time;durP1;ratioP1;P1;durP2;ratioP2;P2;SDS_P1;SDS_P2;PMS_P1;PMS_P2;Temp;Humidity;BMP_temperature;BMP_pressure;BME280_temperature;BME280_humidity;BME280_pressure;Samples;Min_cycle;Max_cycle;Signal;HPM_P1;HPM_P2
2022/10/11 00:00:08;;;;;;;0.60;0.60;;;8.00;99.90;;;;;;4976022;28;20623;-83
2022/10/11 00:03:02;;;;;;;0.60;0.60;;;8.10;99.90;;;;;;4982978;28;20044;-83
2022/10/11 00:05:29;;;;;;;0.55;0.55;;;8.10;99.90;;;;;;4982034;28;20223;-83
2022/10/11 00:07:55;;;;;;;0.60;0.60;;;8.10;99.90;;;;;;4956758;28;20048;-82
2022/10/11 00:10:21;;;;;;;0.60;0.60;;;8.10;99.90;;;;;;4966357;28;20083;-82
2022/10/11 00:12:48;;;;;;;0.60;0.60;;;8.10;99.90;;;;;;4998547;28;20112;-82
2022/10/11 00:15:17;;;;;;;0.60;0.60;;;8.00;99.90;;;;;;4977544;28;20782;-82
2022/10/11 00:17:43;;;;;;;0.60;0.60;;;8.00;99.90;;;;;;4958905;28;20086;-82
2022/10/11 00:20:10;;;;;;;0.60;0.60;;;8.00;99.90;;;;;;4981835;28;20040;-82
2022/10/11 00:22:37;;;;;;;0.60;0.60;;;8.00;99.90;;;;;;4974228;28;20124;-82
2022/10/11 00:25:09;;;;;;;0.63;0.63;;;8.00;99.90;;;;;;4969846;28;20048;-82
2022/10/11 00:27:38;;;;;;;0.60;0.60;;;8.00;99.90;;;;;;4962247;28;20656;-82
2022/10/11 00:30:11;;;;;;;0.60;0.60;;;8.10;99.90;;;;;;4997818;28;20043;-82
2022/10/11 00:32:38;;;;;;;0.60;0.60;;;8.10;99.90;;;;;;4981322;28;20891;-81
2022/10/11 00:35:06;;;;;;;0.60;0.60;;;8.00;99.90;;;;;;4982121;28;20804;-81
2022/10/11 00:37:40;;;;;;;0.60;0.60;;;8.10;99.90;;;;;;4978641;28;20040;-81
2022/10/11 00:40:12;;;;;;;0.60;0.60;;;8.10;99.90;;;;;;4964797;28;20131;-82
2022/10/11 00:42:43;;;;;;;0.60;0.60;;;8.10;99.90;;;;;;4958576;28;20402;-82
2022/10/11 00:45:30;;;;;;;0.60;0.60;;;8.10;99.90;;;;;;4959494;28;20431;-82
2022/10/11 00:48:02;;;;;;;0.60;0.60;;;7.90;99.90;;;;;;4960224;28;20040;-82
2022/10/11 00:50:31;;;;;;;0.60;0.60;;;7.60;99.90;;;;;;4978496;28;20212;-83
2022/10/11 00:53:04;;;;;;;0.60;0.60;;;7.50;99.90;;;;;;4978450;28;20423;-82
2022/10/11 00:55:36;;;;;;;0.60;0.60;;;7.50;99.90;;;;;;4985444;28;20056;-84
2022/10/11 00:58:02;;;;;;;0.60;0.60;;;7.60;99.90;;;;;;4982843;28;20233;-83
2022/10/11 01:00:38;;;;;;;0.60;0.60;;;7.70;99.90;;;;;;4953207;28;20098;-84
2022/10/11 01:03:13;;;;;;;0.60;0.60;;;7.70;99.90;;;;;;4964908;28;20175;-84
2022/10/11 01:05:42;;;;;;;0.60;0.60;;;7.60;99.90;;;;;;5007918;28;20044;-83
2022/10/11 01:08:08;;;;;;;0.60;0.60;;;7.50;99.90;;;;;;4968238;28;20408;-83
2022/10/11 01:10:34;;;;;;;0.60;0.60;;;7.60;99.90;;;;;;4964866;28;20714;-83
2022/10/11 01:13:12;;;;;;;0.60;0.60;;;7.60;99.90;;;;;;4985712;28;20197;-82
2022/10/11 01:16:01;;;;;;;0.60;0.60;;;7.70;99.90;;;;;;4981433;28;20051;-82
2022/10/11 01:18:54;;;;;;;0.60;0.60;;;7.70;99.90;;;;;;4974206;28;20475;-82
2022/10/11 01:21:29;;;;;;;0.60;0.60;;;7.60;99.90;;;;;;4968343;28;20058;-82
2022/10/11 01:24:26;;;;;;;0.60;0.60;;;7.30;99.90;;;;;;5003871;28;20093;-82
2022/10/11 01:27:24;;;;;;;0.60;0.60;;;7.40;99.90;;;;;;4969289;28;20051;-83
2022/10/11 01:30:26;;;;;;;0.60;0.60;;;7.40;99.90;;;;;;4996328;28;20048;-84
2022/10/11 01:33:13;;;;;;;0.60;0.60;;;7.40;99.90;;;;;;4958566;28;20113;-83
2022/10/11 01:36:05;;;;;;;0.60;0.60;;;7.40;99.90;;;;;;4966488;28;20464;-83
2022/10/11 01:38:40;;;;;;;0.70;0.70;;;7.50;99.90;;;;;;4988320;28;20078;-83
2022/10/11 01:41:11;;;;;;;0.60;0.60;;;7.50;99.90;;;;;;4986636;28;20889;-83
2022/10/11 01:43:39;;;;;;;0.60;0.60;;;7.40;99.90;;;;;;4965718;28;20397;-82
2022/10/11 01:46:08;;;;;;;0.60;0.60;;;7.20;99.90;;;;;;4979704;28;20048;-83
2022/10/11 01:48:46;;;;;;;0.60;0.60;;;7.20;99.90;;;;;;4974451;28;20059;-82
2022/10/11 01:51:15;;;;;;;0.60;0.60;;;7.30;99.90;;;;;;4963187;28;20048;-82
2022/10/11 01:54:09;;;;;;;0.60;0.60;;;7.30;99.90;;;;;;4940512;28;20157;-83
2022/10/11 01:56:54;;;;;;;;;;;7.30;99.90;;;;;;4961733;28;20044;-83
2022/10/11 01:59:23;;;;;;;0.70;0.70;;;7.10;99.90;;;;;;4983595;28;19970;-83
2022/10/11 02:01:58;;;;;;;0.60;0.60;;;7.10;99.90;;;;;;4966831;28;20531;-82
2022/10/11 02:05:00;;;;;;;0.60;0.60;;;7.20;99.90;;;;;;4981765;28;20051;-82
2022/10/11 02:07:58;;;;;;;0.60;0.60;;;7.20;99.90;;;;;;4921384;28;20060;-82
2022/10/11 02:10:36;;;;;;;0.60;0.60;;;7.20;99.90;;;;;;4982933;28;20088;-82
2022/10/11 02:13:22;;;;;;;0.60;0.60;;;7.30;99.90;;;;;;4991002;28;20048;-83
2022/10/11 02:15:57;;;;;;;0.60;0.60;;;7.20;99.90;;;;;;4987795;28;20556;-82
2022/10/11 02:18:27;;;;;;;0.60;0.60;;;7.20;99.90;;;;;;4994316;28;20081;-83
2022/10/11 02:20:56;;;;;;;0.60;0.60;;;7.20;99.90;;;;;;4978000;28;20075;-83
2022/10/11 02:23:27;;;;;;;0.60;0.60;;;7.30;99.90;;;;;;4998501;28;20056;-83
2022/10/11 02:25:55;;;;;;;0.60;0.60;;;7.20;99.90;;;;;;4992092;28;20059;-83
2022/10/11 02:28:36;;;;;;;0.60;0.60;;;7.30;99.90;;;;;;4979564;28;20036;-83
2022/10/11 02:31:05;;;;;;;0.60;0.60;;;7.30;99.90;;;;;;5007276;28;20055;-83
2022/10/11 02:33:43;;;;;;;0.60;0.60;;;7.40;99.90;;;;;;4980298;28;20523;-83
2022/10/11 02:36:23;;;;;;;0.60;0.60;;;7.30;99.90;;;;;;4989507;28;20502;-82
2022/10/11 02:38:52;;;;;;;0.60;0.60;;;7.30;99.90;;;;;;4993833;28;20643;-83
2022/10/11 02:41:27;;;;;;;0.60;0.60;;;7.40;99.90;;;;;;4981433;28;20135;-83
2022/10/11 02:44:05;;;;;;;0.60;0.60;;;7.30;99.90;;;;;;4983418;28;20169;-82
2022/10/11 02:46:33;;;;;;;0.60;0.60;;;7.20;99.90;;;;;;4981561;28;20044;-82
2022/10/11 02:49:00;;;;;;;0.63;0.63;;;7.10;99.90;;;;;;4984019;28;20156;-82
2022/10/11 02:51:30;;;;;;;0.60;0.60;;;7.10;99.90;;;;;;4986559;28;20055;-82
2022/10/11 02:53:56;;;;;;;0.60;0.60;;;7.00;99.90;;;;;;4966990;28;20504;-82
2022/10/11 02:56:22;;;;;;;0.70;0.70;;;7.00;99.90;;;;;;4981610;28;20417;-82
2022/10/11 02:58:48;;;;;;;0.60;0.60;;;6.90;99.90;;;;;;4957733;28;20047;-82
2022/10/11 03:01:14;;;;;;;0.60;0.60;;;6.90;99.90;;;;;;4987655;28;20075;-82
2022/10/11 03:03:42;;;;;;;0.60;0.60;;;6.80;99.90;;;;;;4983027;28;20914;-82
2022/10/11 03:06:08;;;;;;;0.65;0.65;;;6.80;99.90;;;;;;4976474;28;20449;-82
2022/10/11 03:08:34;;;;;;;0.60;0.60;;;6.70;99.90;;;;;;4975120;28;20118;-81
2022/10/11 03:11:00;;;;;;;0.60;0.60;;;6.80;99.90;;;;;;4978667;28;20859;-81
2022/10/11 03:13:26;;;;;;;0.70;0.70;;;6.80;99.90;;;;;;4964978;28;20048;-83
2022/10/11 03:15:53;;;;;;;0.60;0.60;;;6.60;99.90;;;;;;4969431;28;20048;-81
2022/10/11 03:18:19;;;;;;;0.60;0.60;;;6.50;99.90;;;;;;4963483;28;20051;-82
2022/10/11 03:20:45;;;;;;;0.60;0.60;;;6.50;99.90;;;;;;4978714;28;20051;-82
2022/10/11 03:23:12;;;;;;;0.60;0.60;;;6.40;99.90;;;;;;4946410;28;20048;-82
2022/10/11 03:25:43;;;;;;;0.60;0.60;;;6.40;99.90;;;;;;4967512;28;20130;-85
2022/10/11 03:28:20;;;;;;;0.60;0.60;;;6.30;99.90;;;;;;4957553;28;20448;-83
2022/10/11 03:30:50;;;;;;;0.60;0.60;;;6.30;99.90;;;;;;4970115;28;20111;-83
2022/10/11 03:33:19;;;;;;;0.60;0.60;;;6.20;99.90;;;;;;4963251;28;20055;-83
2022/10/11 03:35:50;;;;;;;0.60;0.60;;;6.20;99.90;;;;;;5001626;28;20565;-84
2022/10/11 03:38:20;;;;;;;0.60;0.60;;;6.30;99.90;;;;;;4992298;28;20885;-83
2022/10/11 03:40:46;;;;;;;0.60;0.60;;;6.40;99.90;;;;;;4973587;28;20056;-83
2022/10/11 03:43:12;;;;;;;0.60;0.60;;;6.30;99.90;;;;;;4964953;28;20986;-83
2022/10/11 03:45:45;;;;;;;0.60;0.60;;;6.50;99.90;;;;;;4986106;28;20040;-84
2022/10/11 03:48:12;;;;;;;0.60;0.60;;;6.60;99.90;;;;;;4967174;28;20752;-83
2022/10/11 03:50:38;;;;;;;0.60;0.60;;;6.60;99.90;;;;;;4985526;28;20147;-83
2022/10/11 03:53:05;;;;;;;0.60;0.60;;;6.50;99.90;;;;;;4984699;28;20435;-83
2022/10/11 03:55:40;;;;;;;0.60;0.60;;;6.50;99.90;;;;;;4968511;28;20380;-84
2022/10/11 03:58:06;;;;;;;0.60;0.60;;;6.30;99.90;;;;;;4975002;28;20835;-84
2022/10/11 04:00:38;;;;;;;0.60;0.60;;;6.30;99.90;;;;;;4964770;28;20472;-83
2022/10/11 04:03:07;;;;;;;0.60;0.60;;;6.20;99.90;;;;;;4958582;28;20055;-84
2022/10/11 04:05:42;;;;;;;0.60;0.60;;;6.40;99.90;;;;;;4972502;28;20061;-84
2022/10/11 04:08:10;;;;;;;0.60;0.60;;;6.30;99.90;;;;;;4972120;28;20307;-84
2022/10/11 04:10:36;;;;;;;0.60;0.60;;;6.10;99.90;;;;;;4973022;28;20071;-83
2022/10/11 04:13:16;;;;;;;0.60;0.60;;;5.70;99.90;;;;;;5004115;28;20055;-85
2022/10/11 04:15:48;;;;;;;0.60;0.60;;;5.70;99.90;;;;;;5002348;28;20139;-84
2022/10/11 04:18:17;;;;;;;0.60;0.60;;;6.10;99.90;;;;;;4972435;28;20052;-83
2022/10/11 04:20:43;;;;;;;0.60;0.60;;;6.30;99.90;;;;;;4991150;28;20859;-83
2022/10/11 04:23:09;;;;;;;0.60;0.60;;;6.30;99.90;;;;;;4992668;28;20169;-84
2022/10/11 04:25:38;;;;;;;0.60;0.60;;;6.40;99.90;;;;;;4985853;28;20068;-83
2022/10/11 04:28:04;;;;;;;0.60;0.60;;;6.30;99.90;;;;;;4971508;28;20401;-82
2022/10/11 04:30:32;;;;;;;0.60;0.60;;;6.20;99.90;;;;;;4981358;28;20048;-82
2022/10/11 04:33:00;;;;;;;0.60;0.60;;;6.10;99.90;;;;;;4980565;28;20044;-82
2022/10/11 04:35:26;;;;;;;0.60;0.60;;;6.30;99.90;;;;;;4986605;28;20276;-82
2022/10/11 04:37:52;;;;;;;0.60;0.60;;;6.20;99.90;;;;;;4993043;28;20054;-82
2022/10/11 04:40:18;;;;;;;0.60;0.60;;;6.10;99.90;;;;;;4967202;28;21097;-83
2022/10/11 04:42:44;;;;;;;0.60;0.60;;;6.20;99.90;;;;;;4978110;28;20632;-83
2022/10/11 04:45:12;;;;;;;0.70;0.70;;;6.20;99.90;;;;;;4977874;28;20540;-83
2022/10/11 04:47:40;;;;;;;0.60;0.60;;;6.20;99.90;;;;;;4976279;28;20692;-83
2022/10/11 04:50:07;;;;;;;0.60;0.60;;;6.10;99.90;;;;;;4977564;28;20067;-84
2022/10/11 04:52:40;;;;;;;0.60;0.60;;;6.10;99.90;;;;;;4982225;28;21031;-84
2022/10/11 04:55:10;;;;;;;0.70;0.70;;;6.30;99.90;;;;;;4978965;28;20446;-84
2022/10/11 04:57:42;;;;;;;0.60;0.60;;;6.10;99.90;;;;;;4981888;28;20036;-85
2022/10/11 05:00:10;;;;;;;0.60;0.60;;;6.10;99.90;;;;;;4983556;28;20441;-85
2022/10/11 05:02:44;;;;;;;0.70;0.70;;;6.10;99.90;;;;;;4998284;28;20044;-84
2022/10/11 05:05:16;;;;;;;0.60;0.60;;;6.20;99.90;;;;;;4995292;28;20055;-84
2022/10/11 05:07:47;;;;;;;0.60;0.60;;;6.10;99.90;;;;;;4968894;28;20837;-84
2022/10/11 05:10:13;;;;;;;0.60;0.60;;;6.20;99.90;;;;;;4979805;28;20447;-85
2022/10/11 05:12:42;;;;;;;0.60;0.60;;;6.20;99.90;;;;;;5003204;28;20044;-84
2022/10/11 05:15:24;;;;;;;0.60;0.60;;;6.00;99.90;;;;;;5000761;28;20393;-85
2022/10/11 05:17:53;;;;;;;0.60;0.60;;;6.10;99.90;;;;;;4963614;28;20265;-85
2022/10/11 05:20:22;;;;;;;0.60;0.60;;;6.10;99.90;;;;;;4984105;28;20063;-85
2022/10/11 05:22:54;;;;;;;0.60;0.60;;;6.00;99.90;;;;;;4992919;28;20050;-84
2022/10/11 05:25:22;;;;;;;0.60;0.60;;;6.00;99.90;;;;;;4994378;28;20052;-84
2022/10/11 05:27:56;;;;;;;0.63;0.63;;;5.90;99.90;;;;;;4977107;28;20492;-84
2022/10/11 05:30:22;;;;;;;0.65;0.65;;;6.00;99.90;;;;;;4992378;28;20443;-83
2022/10/11 05:32:48;;;;;;;0.70;0.70;;;6.00;99.90;;;;;;4977246;28;20051;-84
2022/10/11 05:35:30;;;;;;;0.60;0.60;;;6.00;99.90;;;;;;4976245;28;20954;-84
2022/10/11 05:37:58;;;;;;;0.60;0.60;;;6.00;99.90;;;;;;4990619;28;20051;-84
2022/10/11 05:40:36;;;;;;;0.70;0.70;;;6.10;99.90;;;;;;4974286;28;20934;-83
2022/10/11 05:43:06;;;;;;;0.60;0.60;;;6.10;99.90;;;;;;5001871;28;20064;-83
2022/10/11 05:45:36;;;;;;;0.63;0.63;;;6.10;99.90;;;;;;4989491;28;20915;-83
2022/10/11 05:48:02;;;;;;;0.70;0.70;;;6.10;99.90;;;;;;4992066;28;20123;-83
2022/10/11 05:50:31;;;;;;;0.68;0.68;;;6.10;99.90;;;;;;4965433;28;20580;-84
2022/10/11 05:53:00;;;;;;;0.60;0.60;;;6.10;99.90;;;;;;4989158;28;20044;-83
2022/10/11 05:55:27;;;;;;;0.70;0.70;;;6.10;99.90;;;;;;4965546;28;20056;-83
2022/10/11 05:57:56;;;;;;;0.70;0.70;;;6.20;99.90;;;;;;4958622;28;20435;-83
2022/10/11 06:00:28;;;;;;;0.60;0.60;;;6.20;99.90;;;;;;4966991;28;20105;-82
2022/10/11 06:02:57;;;;;;;0.60;0.60;;;6.30;99.90;;;;;;4983702;28;20051;-82
2022/10/11 06:05:30;;;;;;;0.60;0.60;;;6.30;99.90;;;;;;4973923;28;20149;-82
2022/10/11 06:07:57;;;;;;;0.70;0.70;;;6.30;99.90;;;;;;4977335;28;20036;-83
2022/10/11 06:10:24;;;;;;;0.60;0.60;;;6.20;99.90;;;;;;4982867;28;20052;-82
2022/10/11 06:12:53;;;;;;;0.70;0.70;;;6.30;99.90;;;;;;4967224;28;20800;-83
2022/10/11 06:15:18;;;;;;;0.60;0.60;;;6.30;99.90;;;;;;4973652;28;20151;-82
2022/10/11 06:17:46;;;;;;;0.70;0.70;;;6.30;99.90;;;;;;4987532;28;20243;-82
2022/10/11 06:20:19;;;;;;;0.60;0.60;;;6.40;99.90;;;;;;4962493;28;20067;-83
2022/10/11 06:22:48;;;;;;;0.70;0.70;;;6.40;99.90;;;;;;4971484;28;20044;-83
2022/10/11 06:25:17;;;;;;;0.60;0.60;;;6.50;99.90;;;;;;4993077;28;20040;-84
2022/10/11 06:27:48;;;;;;;0.70;0.70;;;6.50;99.90;;;;;;4979621;28;20432;-83
2022/10/11 06:30:14;;;;;;;0.60;0.60;;;6.50;99.90;;;;;;4949735;28;20078;-79
2022/10/11 06:32:46;;;;;;;0.70;0.70;;;6.40;99.90;;;;;;4972126;28;20054;-83
2022/10/11 06:35:12;;;;;;;0.70;0.70;;;6.40;99.90;;;;;;4988012;28;20078;-82
2022/10/11 06:37:37;;;;;;;0.70;0.70;;;6.60;99.90;;;;;;4940659;28;20047;-82
2022/10/11 06:40:07;;;;;;;0.68;0.68;;;6.50;99.90;;;;;;4983828;28;20044;-83
2022/10/11 06:42:53;;;;;;;0.70;0.70;;;6.50;99.90;;;;;;4984688;28;20426;-83
2022/10/11 06:45:23;;;;;;;0.60;0.60;;;6.60;99.90;;;;;;4998701;28;20117;-81
2022/10/11 06:47:51;;;;;;;0.60;0.60;;;6.70;99.90;;;;;;4968089;28;20471;-82
2022/10/11 06:50:24;;;;;;;0.70;0.70;;;6.70;99.90;;;;;;4967515;28;20478;-84
2022/10/11 06:52:53;;;;;;;0.70;0.70;;;6.80;99.90;;;;;;4976851;28;20131;-82
2022/10/11 06:55:19;;;;;;;0.60;0.60;;;6.90;99.90;;;;;;4993728;28;20349;-83
2022/10/11 06:57:45;;;;;;;0.70;0.70;;;6.80;99.90;;;;;;4976722;28;20044;-84
2022/10/11 07:00:32;;;;;;;0.60;0.60;;;6.90;99.90;;;;;;4996907;28;20409;-84
2022/10/11 07:03:01;;;;;;;0.70;0.70;;;7.00;99.90;;;;;;4978004;28;20044;-81
2022/10/11 07:05:28;;;;;;;0.60;0.60;;;7.00;99.90;;;;;;4974123;28;20377;-83
2022/10/11 07:07:54;;;;;;;0.60;0.60;;;7.10;99.90;;;;;;4987245;28;20056;-82
2022/10/11 07:10:20;;;;;;;0.60;0.60;;;7.10;99.90;;;;;;4990103;28;20047;-82
2022/10/11 07:12:46;;;;;;;0.60;0.60;;;7.10;99.90;;;;;;4989721;28;20464;-83
2022/10/11 07:15:11;;;;;;;0.70;0.70;;;7.10;99.90;;;;;;4968954;28;20485;-82
2022/10/11 07:17:39;;;;;;;0.70;0.70;;;7.20;99.90;;;;;;4968298;28;20418;-81
2022/10/11 07:20:06;;;;;;;0.70;0.70;;;7.20;99.90;;;;;;4979527;28;20629;-82
2022/10/11 07:22:32;;;;;;;0.70;0.70;;;7.30;99.90;;;;;;4965326;28;20044;-82
2022/10/11 07:24:58;;;;;;;0.60;0.60;;;7.30;99.90;;;;;;4968811;28;20664;-80
2022/10/11 07:27:24;;;;;;;0.60;0.60;;;7.50;99.90;;;;;;4982617;28;20197;-84
2022/10/11 07:29:52;;;;;;;0.60;0.60;;;7.60;99.90;;;;;;4959479;28;20052;-82
2022/10/11 07:32:22;;;;;;;0.63;0.63;;;7.60;99.90;;;;;;4972157;28;20499;-84
2022/10/11 07:34:49;;;;;;;0.60;0.60;;;7.70;99.90;;;;;;4978040;28;20602;-84
2022/10/11 07:37:15;;;;;;;0.70;0.70;;;7.80;99.90;;;;;;4977103;28;20052;-84
2022/10/11 07:39:43;;;;;;;0.60;0.60;;;8.00;99.90;;;;;;4974066;28;20040;-85
2022/10/11 07:42:14;;;;;;;0.60;0.60;;;8.00;99.90;;;;;;5007635;28;20185;-84
2022/10/11 07:44:44;;;;;;;0.63;0.63;;;8.10;99.90;;;;;;4993371;28;20044;-83
2022/10/11 07:47:10;;;;;;;0.60;0.60;;;8.20;99.90;;;;;;4987173;28;20044;-83
2022/10/11 07:49:38;;;;;;;0.60;0.60;;;8.30;99.90;;;;;;4988063;28;20062;-84
2022/10/11 07:52:04;;;;;;;0.60;0.60;;;8.50;99.90;;;;;;4990485;28;20044;-83
2022/10/11 07:54:31;;;;;;;0.60;0.60;;;8.50;99.90;;;;;;4976752;28;20518;-84
2022/10/11 07:56:57;;;;;;;0.60;0.60;;;8.70;99.90;;;;;;4987092;28;20047;-83
2022/10/11 07:59:23;;;;;;;0.68;0.68;;;8.60;99.90;;;;;;4961921;28;20883;-83
2022/10/11 08:01:49;;;;;;;0.60;0.60;;;8.70;99.90;;;;;;4990581;28;20047;-83
2022/10/11 08:04:15;;;;;;;0.60;0.60;;;8.70;99.90;;;;;;4980748;28;20688;-82
2022/10/11 08:06:44;;;;;;;0.60;0.60;;;8.80;99.90;;;;;;4943730;28;20791;-82
2022/10/11 08:09:12;;;;;;;0.60;0.60;;;8.90;99.90;;;;;;4991398;28;20052;-83
2022/10/11 08:11:39;;;;;;;0.60;0.60;;;8.90;99.90;;;;;;4952427;28;20647;-83
2022/10/11 08:14:10;;;;;;;0.60;0.60;;;9.00;99.90;;;;;;4966789;28;20048;-83
2022/10/11 08:16:41;;;;;;;0.60;0.60;;;9.10;99.90;;;;;;4968463;28;20054;-84
2022/10/11 08:19:07;;;;;;;0.60;0.60;;;9.20;99.90;;;;;;4992118;28;20043;-84
2022/10/11 08:21:44;;;;;;;0.60;0.60;;;9.40;99.90;;;;;;4989040;28;20400;-85
2022/10/11 08:24:19;;;;;;;0.60;0.60;;;9.70;99.90;;;;;;4978000;28;20040;-83
2022/10/11 08:27:14;;;;;;;0.60;0.60;;;9.90;99.90;;;;;;4993498;28;20126;-85
2022/10/11 08:29:45;;;;;;;0.60;0.60;;;10.20;99.90;;;;;;4976328;28;20052;-84
2022/10/11 08:32:17;;;;;;;0.60;0.60;;;10.50;99.90;;;;;;5012276;28;20350;-83
2022/10/11 08:35:01;;;;;;;0.60;0.60;;;10.70;99.90;;;;;;4978605;28;20109;-85
2022/10/11 08:37:39;;;;;;;0.50;0.50;;;10.80;99.90;;;;;;4981516;28;20044;-84
2022/10/11 08:40:16;;;;;;;0.50;0.50;;;11.10;99.90;;;;;;4999665;28;20396;-83
2022/10/11 08:42:44;;;;;;;;;;;11.30;99.90;;;;;;4999628;28;20044;-86
2022/10/11 08:45:56;;;;;;;0.60;0.60;;;11.30;99.90;;;;;;4977133;28;19923;-82
2022/10/11 08:48:46;;;;;;;0.50;0.50;;;11.40;99.90;;;;;;4897927;28;20124;-83
2022/10/11 08:51:26;;;;;;;0.50;0.50;;;11.70;99.90;;;;;;4891187;28;20274;-84
2022/10/11 08:54:14;;;;;;;0.50;0.50;;;11.90;99.90;;;;;;4980893;28;20272;-82
2022/10/11 08:56:42;;;;;;;0.50;0.50;;;11.90;99.90;;;;;;4975626;28;20051;-81
2022/10/11 08:59:22;;;;;;;0.50;0.50;;;12.10;99.90;;;;;;4968754;28;20043;-83
2022/10/11 09:02:00;;;;;;;0.50;0.50;;;12.30;99.90;;;;;;4989259;28;20173;-82
2022/10/11 09:04:27;;;;;;;0.50;0.50;;;12.40;99.90;;;;;;4979084;28;20531;-82
2022/10/11 09:06:58;;;;;;;0.50;0.50;;;12.60;99.90;;;;;;4995790;28;20381;-81
2022/10/11 09:09:58;;;;;;;0.50;0.50;;;12.60;99.90;;;;;;4978017;28;20485;-82
2022/10/11 09:12:48;;;;;;;0.50;0.50;;;12.70;99.90;;;;;;4979057;28;20394;-81
2022/10/11 09:15:57;;;;;;;0.50;0.50;;;12.70;99.90;;;;;;4971927;28;20046;-81
2022/10/11 09:18:55;;;;;;;0.50;0.50;;;13.00;99.90;;;;;;4968202;28;20473;-81
2022/10/11 09:21:41;;;;;;;0.50;0.50;;;13.00;99.90;;;;;;4964209;28;20056;-82
2022/10/11 09:24:10;;;;;;;0.50;0.50;;;13.00;99.90;;;;;;4975525;28;20952;-81
2022/10/11 09:26:45;;;;;;;0.50;0.50;;;13.20;99.90;;;;;;4981707;28;20047;-81
2022/10/11 09:29:43;;;;;;;0.50;0.50;;;13.40;99.90;;;;;;4976857;28;20086;-81
2022/10/11 09:32:16;;;;;;;0.50;0.50;;;13.50;99.90;;;;;;4962897;28;20900;-83
2022/10/11 09:34:43;;;;;;;0.50;0.50;;;13.70;99.90;;;;;;4970501;28;20116;-82
2022/10/11 09:37:59;;;;;;;0.50;0.50;;;13.70;99.90;;;;;;4981493;28;20707;-82
2022/10/11 09:40:59;;;;;;;0.50;0.50;;;13.80;99.90;;;;;;4976403;28;20052;-82
2022/10/11 09:43:25;;;;;;;0.50;0.50;;;13.90;99.90;;;;;;5000583;28;20043;-80
2022/10/11 09:45:51;;;;;;;0.50;0.50;;;13.90;99.90;;;;;;4984992;28;20379;-82
2022/10/11 09:48:24;;;;;;;0.50;0.50;;;14.00;99.90;;;;;;4968699;28;20431;-82
2022/10/11 09:50:50;;;;;;;;;;;14.00;99.90;;;;;;4990597;28;20043;-82
2022/10/11 09:53:18;;;;;;;0.50;0.50;;;14.00;99.90;;;;;;4988323;28;19927;-81
2022/10/11 09:56:01;;;;;;;0.50;0.50;;;14.20;99.90;;;;;;4979332;28;20060;-81
2022/10/11 09:58:33;;;;;;;0.50;0.50;;;14.20;99.90;;;;;;4979154;28;20497;-81
2022/10/11 10:01:04;;;;;;;0.50;0.50;;;14.20;99.90;;;;;;4982141;28;20920;-81
2022/10/11 10:03:32;;;;;;;0.50;0.50;;;14.20;99.90;;;;;;4964444;28;20086;-82
2022/10/11 10:06:21;;;;;;;0.50;0.50;;;14.30;99.90;;;;;;4982375;28;20086;-81
2022/10/11 10:08:47;;;;;;;0.50;0.50;;;14.50;99.90;;;;;;4976095;28;20129;-81
2022/10/11 10:11:17;;;;;;;0.50;0.50;;;14.60;99.90;;;;;;4981548;28;20047;-81
2022/10/11 10:13:53;;;;;;;0.50;0.50;;;14.50;99.90;;;;;;4981627;28;20564;-81
2022/10/11 10:16:28;;;;;;;0.50;0.50;;;14.40;99.90;;;;;;4980936;28;20704;-81
2022/10/11 10:19:24;;;;;;;0.50;0.50;;;14.60;99.90;;;;;;4997644;28;20048;-82
2022/10/11 10:21:52;;;;;;;0.50;0.50;;;14.50;99.90;;;;;;4983168;28;20188;-82
2022/10/11 10:24:20;;;;;;;0.50;0.50;;;14.30;99.90;;;;;;5002825;28;20129;-82
2022/10/11 10:27:07;;;;;;;0.50;0.50;;;14.30;99.90;;;;;;4980590;28;20295;-81
2022/10/11 10:29:36;;;;;;;0.50;0.50;;;14.50;99.90;;;;;;5002218;28;20353;-81
2022/10/11 10:32:34;;;;;;;0.50;0.50;;;14.70;99.90;;;;;;4983546;28;20426;-81
2022/10/11 10:35:15;;;;;;;0.50;0.50;;;14.80;99.90;;;;;;4965883;28;20060;-79
2022/10/11 10:37:49;;;;;;;0.47;0.47;;;14.90;99.90;;;;;;4964183;28;20481;-80
2022/10/11 10:40:26;;;;;;;0.50;0.50;;;15.10;99.90;;;;;;4998969;28;20440;-81
2022/10/11 10:42:52;;;;;;;0.50;0.50;;;15.20;99.90;;;;;;4985832;28;20066;-82
2022/10/11 10:45:23;;;;;;;0.47;0.47;;;15.40;99.90;;;;;;4998924;28;20105;-81
2022/10/11 10:48:07;;;;;;;0.50;0.50;;;15.70;99.90;;;;;;5002328;28;20529;-82
2022/10/11 10:50:53;;;;;;;0.40;0.40;;;15.80;99.90;;;;;;4982483;28;20915;-82
2022/10/11 10:53:36;;;;;;;0.40;0.40;;;15.90;99.90;;;;;;4963148;28;20043;-79
2022/10/11 10:56:14;;;;;;;0.40;0.40;;;16.10;99.90;;;;;;4999811;28;20759;-81
2022/10/11 10:58:42;;;;;;;0.40;0.40;;;16.20;99.90;;;;;;4998958;28;20054;-81
2022/10/11 11:01:16;;;;;;;0.40;0.40;;;16.40;99.90;;;;;;4980859;28;20747;-82
2022/10/11 11:04:04;;;;;;;0.40;0.40;;;16.40;99.90;;;;;;5000071;28;20850;-82
2022/10/11 11:06:41;;;;;;;0.47;0.47;;;16.50;99.90;;;;;;5001175;28;20155;-82
2022/10/11 11:09:26;;;;;;;0.40;0.40;;;16.70;99.90;;;;;;4986997;28;20620;-81
2022/10/11 11:11:58;;;;;;;0.40;0.40;;;16.80;99.90;;;;;;5002248;28;20212;-81
2022/10/11 11:14:35;;;;;;;0.40;0.40;;;16.80;99.90;;;;;;4985379;28;20040;-82
2022/10/11 11:17:16;;;;;;;0.40;0.40;;;16.70;99.90;;;;;;4981770;28;20547;-81
2022/10/11 11:20:03;;;;;;;0.40;0.40;;;16.70;99.90;;;;;;4977823;28;20054;-82
2022/10/11 11:22:44;;;;;;;0.40;0.40;;;17.00;99.90;;;;;;4986800;28;20677;-83
2022/10/11 11:25:19;;;;;;;0.40;0.40;;;17.00;99.90;;;;;;4972771;28;20489;-81
2022/10/11 11:28:03;;;;;;;0.50;0.50;;;17.20;99.90;;;;;;4977107;28;20431;-82
2022/10/11 11:30:57;;;;;;;0.40;0.40;;;17.30;99.90;;;;;;4987470;28;20048;-82
2022/10/11 11:33:34;;;;;;;0.50;0.50;;;17.40;99.90;;;;;;4986580;28;20866;-83
2022/10/11 11:36:10;;;;;;;0.40;0.40;;;17.40;99.90;;;;;;4987877;28;21003;-83
2022/10/11 11:38:50;;;;;;;0.45;0.45;;;17.40;99.90;;;;;;5005032;28;20051;-80
2022/10/11 11:41:27;;;;;;;0.40;0.40;;;17.60;99.90;;;;;;5003932;28;20048;-81
2022/10/11 11:44:00;;;;;;;0.50;0.50;;;17.90;99.90;;;;;;5001389;28;20388;-82
2022/10/11 11:46:31;;;;;;;0.40;0.40;;;18.00;99.90;;;;;;5006057;28;20578;-82
2022/10/11 11:49:01;;;;;;;0.40;0.40;;;18.00;99.90;;;;;;4982276;28;20140;-81
2022/10/11 11:51:33;;;;;;;0.40;0.40;;;18.00;99.90;;;;;;4995976;28;20047;-81
2022/10/11 11:54:16;;;;;;;0.40;0.40;;;18.10;99.90;;;;;;5001546;28;20044;-81
2022/10/11 11:57:29;;;;;;;0.40;0.40;;;18.10;99.90;;;;;;4983212;28;20079;-81
2022/10/11 12:00:18;;;;;;;0.40;0.40;;;18.20;99.90;;;;;;4897308;28;20074;-88
2022/10/11 12:03:05;;;;;;;0.40;0.40;;;18.20;99.90;;;;;;4901139;28;20042;-83
2022/10/11 12:05:34;;;;;;;0.40;0.40;;;18.00;99.90;;;;;;4967045;28;20453;-81
2022/10/11 12:08:02;;;;;;;0.40;0.40;;;18.10;99.90;;;;;;4998900;28;21137;-82
2022/10/11 12:10:54;;;;;;;0.40;0.40;;;18.30;99.90;;;;;;4980606;28;20067;-81
2022/10/11 12:13:20;;;;;;;0.40;0.40;;;18.00;99.90;;;;;;4974238;28;20505;-80
2022/10/11 12:15:58;;;;;;;0.40;0.40;;;17.40;99.90;;;;;;4975776;28;20059;-79
2022/10/11 12:18:29;;;;;;;0.40;0.40;;;17.20;99.90;;;;;;4961600;28;20335;-81
2022/10/11 12:21:16;;;;;;;0.40;0.40;;;16.90;99.90;;;;;;4960689;28;20546;-79
2022/10/11 12:23:46;;;;;;;0.40;0.40;;;17.00;99.90;;;;;;4999258;28;20248;-81
2022/10/11 12:26:27;;;;;;;0.40;0.40;;;16.60;99.90;;;;;;4980020;28;20130;-83
2022/10/11 12:29:00;;;;;;;0.40;0.40;;;16.70;99.90;;;;;;4994867;28;20051;-80
2022/10/11 12:31:35;;;;;;;0.40;0.40;;;17.30;99.90;;;;;;4963078;28;20048;-81
2022/10/11 12:34:01;;;;;;;0.40;0.40;;;17.60;99.90;;;;;;4965893;28;20051;-82
2022/10/11 12:36:28;;;;;;;0.40;0.40;;;18.00;99.90;;;;;;4968929;28;20047;-82
2022/10/11 12:39:19;;;;;;;0.40;0.40;;;18.10;99.90;;;;;;4975671;28;20534;-82
2022/10/11 12:41:52;;;;;;;0.40;0.40;;;18.20;99.90;;;;;;4974805;28;20048;-80
2022/10/11 12:44:18;;;;;;;0.40;0.40;;;18.30;99.90;;;;;;4973792;28;20915;-82
2022/10/11 12:46:49;;;;;;;0.40;0.40;;;18.30;99.90;;;;;;4985817;28;20127;-81
2022/10/11 12:49:36;;;;;;;0.40;0.40;;;18.70;99.90;;;;;;4984615;28;20060;-82
2022/10/11 12:52:21;;;;;;;0.40;0.40;;;18.50;99.90;;;;;;4982949;28;20545;-81
2022/10/11 12:55:17;;;;;;;0.40;0.40;;;18.60;99.90;;;;;;4982906;28;20453;-82
2022/10/11 12:58:14;;;;;;;0.40;0.40;;;18.70;99.90;;;;;;4979939;28;20865;-81
2022/10/11 13:01:02;;;;;;;0.40;0.40;;;18.60;99.90;;;;;;4981692;28;20128;-82
2022/10/11 13:04:03;;;;;;;0.40;0.40;;;18.60;99.90;;;;;;4979547;28;20147;-81
2022/10/11 13:07:01;;;;;;;0.40;0.40;;;18.80;99.90;;;;;;4986869;28;20806;-82
2022/10/11 13:09:40;;;;;;;0.40;0.40;;;18.40;99.90;;;;;;4988269;28;20528;-80
2022/10/11 13:12:13;;;;;;;0.40;0.40;;;17.80;99.90;;;;;;4980185;28;20595;-80
2022/10/11 13:14:45;;;;;;;0.40;0.40;;;17.40;99.90;;;;;;4992737;28;20090;-81
2022/10/11 13:17:15;;;;;;;0.40;0.40;;;17.30;99.90;;;;;;4994177;28;20040;-82
2022/10/11 13:19:42;;;;;;;0.40;0.40;;;17.50;99.90;;;;;;4967758;28;20866;-82
2022/10/11 13:22:20;;;;;;;0.40;0.40;;;17.70;99.90;;;;;;5000213;28;20059;-81
2022/10/11 13:24:46;;;;;;;0.40;0.40;;;17.90;99.90;;;;;;5002786;28;20105;-82
2022/10/11 13:27:22;;;;;;;0.40;0.40;;;18.10;99.90;;;;;;4997267;28;20044;-78
2022/10/11 13:29:50;;;;;;;0.40;0.40;;;18.20;99.90;;;;;;4977941;28;20044;-82